This is the latest recevied weather packets stored in our database for station/object AB8KN-2. If no packets are shown the sender has not sent any weather packets the latest 10 day(s).
| Time | Temp. | Humidity | Pressure | Rain* | Wind** | Luminosity | Snow |
|---|---|---|---|---|---|---|---|
| 1778092237 | 15.56° C | 48% | 1012.5 hPa | 0 mm | - | 651 W/m² | - |
| 1778091617 | 15.56° C | 47% | 1012.6 hPa | 0 mm | - | 719 W/m² | - |
| 1778090437 | 15.56° C | 48% | 1012.6 hPa | 0 mm | - | 604 W/m² | - |
| 1778089858 | 16.11° C | 48% | 1012.5 hPa | 0 mm | - | 564 W/m² | - |
| 1778089218 | 16.11° C | 49% | 1012.8 hPa | 0 mm | - | 689 W/m² | - |
| 1778088018 | 15.56° C | 47% | 1012.7 hPa | 0 mm | - | 903 W/m² | - |
| 1778083817 | 13.33° C | 58% | 1013.5 hPa | 0 mm | - | 859 W/m² | - |
| 1778082037 | 12.78° C | 61% | 1012.4 hPa | 0 mm | - | 498 W/m² | - |
| 1778080817 | 11.67° C | 64% | 1012.6 hPa | 0 mm | - | 545 W/m² | - |
| 1778076618 | 9.44° C | 81% | 1011.6 hPa | 0 mm | - | 301 W/m² | - |
| 1778072416 | 7.78° C | 93% | 1010.7 hPa | 0 mm | - | 143 W/m² | - |
| 1778065218 | 7.78° C | 98% | 1008.4 hPa | 0 mm | - | 4 W/m² | - |
| 1778064659 | 7.78° C | 98% | 1008.2 hPa | 0 mm | - | 4 W/m² | - |
| 1778058020 | 7.78° C | 97% | 1007 hPa | 1.52 mm | - | 0 W/m² | - |
| 1778053821 | 7.78° C | 97% | 1006.8 hPa | 0.76 mm | - | 0 W/m² | - |
| 1778046617 | 9.44° C | 97% | 1006.7 hPa | 0.25 mm | - | 0 W/m² | - |
| 1778041836 | 10° C | 96% | 1007.1 hPa | 0.25 mm | - | 0 W/m² | - |
| 1778041216 | 10° C | 96% | 1007.1 hPa | 0.76 mm | - | 0 W/m² | - |
| 1778034618 | 15° C | 95% | 1007.9 hPa | 2.54 mm | - | 0 W/m² | - |
| 1778032215 | 15.56° C | 96% | 1008.1 hPa | 1.52 mm | - | 0 W/m² | - |
| 1778030456 | 15.56° C | 95% | 1007.7 hPa | 0.51 mm | - | 0 W/m² | - |
| 1778025638 | 15.56° C | 95% | 1007.6 hPa | 0.25 mm | - | 4 W/m² | - |
| 1778024417 | 15.56° C | 95% | 1007.6 hPa | 0 mm | - | 6 W/m² | - |
| 1778023817 | 15.56° C | 94% | 1007.8 hPa | 0.25 mm | - | 8 W/m² | - |
| 1778023217 | 15.56° C | 94% | 1007.8 hPa | 0.51 mm | - | 11 W/m² | - |
* Rain latest hour (hover to see other rain measurements)
** Current wind speed in m/s (hover to see current wind gust speed)